sensor_id;sensor_type;location;lat;lon;timestamp;temperature;humidity
8945;DHT22;4507;40.232;29.132;2023-06-14T00:01:51;18.40;94.40
8945;DHT22;4507;40.232;29.132;2023-06-14T00:04:20;18.40;94.50
8945;DHT22;4507;40.232;29.132;2023-06-14T00:06:49;18.40;94.60
8945;DHT22;4507;40.232;29.132;2023-06-14T00:09:18;18.50;94.60
8945;DHT22;4507;40.232;29.132;2023-06-14T00:11:47;18.40;94.70
8945;DHT22;4507;40.232;29.132;2023-06-14T00:14:16;18.40;94.80
8945;DHT22;4507;40.232;29.132;2023-06-14T00:16:45;18.40;94.80
8945;DHT22;4507;40.232;29.132;2023-06-14T00:19:16;18.40;94.80
8945;DHT22;4507;40.232;29.132;2023-06-14T00:21:46;18.30;94.80
8945;DHT22;4507;40.232;29.132;2023-06-14T00:24:15;18.30;94.90
8945;DHT22;4507;40.232;29.132;2023-06-14T00:26:44;18.30;95.00
8945;DHT22;4507;40.232;29.132;2023-06-14T00:29:13;18.30;95.10
8945;DHT22;4507;40.232;29.132;2023-06-14T00:31:41;18.30;95.20
8945;DHT22;4507;40.232;29.132;2023-06-14T00:34:10;18.30;95.30
8945;DHT22;4507;40.232;29.132;2023-06-14T00:36:42;18.30;95.40
8945;DHT22;4507;40.232;29.132;2023-06-14T00:39:14;18.30;95.40
8945;DHT22;4507;40.232;29.132;2023-06-14T00:41:43;18.30;95.50
8945;DHT22;4507;40.232;29.132;2023-06-14T00:44:13;18.30;95.50
8945;DHT22;4507;40.232;29.132;2023-06-14T00:46:45;18.30;95.60
8945;DHT22;4507;40.232;29.132;2023-06-14T00:49:15;18.30;95.70
8945;DHT22;4507;40.232;29.132;2023-06-14T00:51:46;18.30;95.70
8945;DHT22;4507;40.232;29.132;2023-06-14T00:54:15;18.30;95.70
8945;DHT22;4507;40.232;29.132;2023-06-14T00:56:44;18.30;95.70
8945;DHT22;4507;40.232;29.132;2023-06-14T00:59:13;18.30;95.60
8945;DHT22;4507;40.232;29.132;2023-06-14T01:01:43;18.30;95.60
8945;DHT22;4507;40.232;29.132;2023-06-14T01:04:12;18.30;95.60
8945;DHT22;4507;40.232;29.132;2023-06-14T01:06:47;18.30;95.60
8945;DHT22;4507;40.232;29.132;2023-06-14T01:09:23;18.20;95.60
8945;DHT22;4507;40.232;29.132;2023-06-14T01:12:00;18.20;95.60
8945;DHT22;4507;40.232;29.132;2023-06-14T01:14:34;18.20;95.70
8945;DHT22;4507;40.232;29.132;2023-06-14T01:17:04;18.20;95.60
8945;DHT22;4507;40.232;29.132;2023-06-14T01:19:35;18.20;95.60
8945;DHT22;4507;40.232;29.132;2023-06-14T01:22:08;18.20;95.60
8945;DHT22;4507;40.232;29.132;2023-06-14T01:24:38;18.20;95.60
8945;DHT22;4507;40.232;29.132;2023-06-14T01:27:13;18.10;96.00
8945;DHT22;4507;40.232;29.132;2023-06-14T01:29:43;18.10;95.80
8945;DHT22;4507;40.232;29.132;2023-06-14T01:32:15;18.10;95.80
8945;DHT22;4507;40.232;29.132;2023-06-14T01:34:45;18.10;95.90
8945;DHT22;4507;40.232;29.132;2023-06-14T01:37:14;18.10;96.00
8945;DHT22;4507;40.232;29.132;2023-06-14T01:39:46;18.10;96.20
8945;DHT22;4507;40.232;29.132;2023-06-14T01:42:18;18.10;96.30
8945;DHT22;4507;40.232;29.132;2023-06-14T01:44:48;18.20;96.30
8945;DHT22;4507;40.232;29.132;2023-06-14T01:47:20;18.20;96.30
8945;DHT22;4507;40.232;29.132;2023-06-14T01:49:49;18.20;96.20
8945;DHT22;4507;40.232;29.132;2023-06-14T01:52:17;18.20;96.20
8945;DHT22;4507;40.232;29.132;2023-06-14T01:54:48;18.30;96.20
8945;DHT22;4507;40.232;29.132;2023-06-14T01:57:17;18.30;96.20
8945;DHT22;4507;40.232;29.132;2023-06-14T01:59:46;18.30;96.20
8945;DHT22;4507;40.232;29.132;2023-06-14T02:02:16;18.30;96.20
8945;DHT22;4507;40.232;29.132;2023-06-14T02:04:45;18.30;96.00
8945;DHT22;4507;40.232;29.132;2023-06-14T02:07:15;18.30;95.90
8945;DHT22;4507;40.232;29.132;2023-06-14T02:09:43;18.30;95.90
8945;DHT22;4507;40.232;29.132;2023-06-14T02:12:14;18.30;95.90
8945;DHT22;4507;40.232;29.132;2023-06-14T02:14:43;18.30;95.80
8945;DHT22;4507;40.232;29.132;2023-06-14T02:17:12;18.30;95.80
8945;DHT22;4507;40.232;29.132;2023-06-14T02:19:42;18.30;95.90
8945;DHT22;4507;40.232;29.132;2023-06-14T02:22:11;18.30;96.00
8945;DHT22;4507;40.232;29.132;2023-06-14T02:24:42;18.30;96.00
8945;DHT22;4507;40.232;29.132;2023-06-14T02:27:11;18.30;96.00
8945;DHT22;4507;40.232;29.132;2023-06-14T02:29:41;18.30;96.10
8945;DHT22;4507;40.232;29.132;2023-06-14T02:32:10;18.30;96.20
8945;DHT22;4507;40.232;29.132;2023-06-14T02:34:39;18.30;96.20
8945;DHT22;4507;40.232;29.132;2023-06-14T02:37:10;18.30;96.30
8945;DHT22;4507;40.232;29.132;2023-06-14T02:39:40;18.30;96.30
8945;DHT22;4507;40.232;29.132;2023-06-14T02:42:09;18.30;96.30
8945;DHT22;4507;40.232;29.132;2023-06-14T02:44:38;18.30;96.30
8945;DHT22;4507;40.232;29.132;2023-06-14T02:47:09;18.30;96.40
8945;DHT22;4507;40.232;29.132;2023-06-14T02:49:38;18.30;96.50
8945;DHT22;4507;40.232;29.132;2023-06-14T02:52:07;18.30;96.60
8945;DHT22;4507;40.232;29.132;2023-06-14T02:54:36;18.30;96.70
8945;DHT22;4507;40.232;29.132;2023-06-14T02:57:05;18.30;96.80
8945;DHT22;4507;40.232;29.132;2023-06-14T02:59:53;18.30;96.90
8945;DHT22;4507;40.232;29.132;2023-06-14T03:02:25;18.30;96.90
8945;DHT22;4507;40.232;29.132;2023-06-14T03:04:54;18.30;96.90
8945;DHT22;4507;40.232;29.132;2023-06-14T03:07:23;18.30;97.00
8945;DHT22;4507;40.232;29.132;2023-06-14T03:09:53;18.30;97.00
8945;DHT22;4507;40.232;29.132;2023-06-14T03:12:22;18.40;97.10
8945;DHT22;4507;40.232;29.132;2023-06-14T03:14:52;18.40;97.10
8945;DHT22;4507;40.232;29.132;2023-06-14T03:17:27;18.40;97.10
8945;DHT22;4507;40.232;29.132;2023-06-14T03:19:59;18.40;97.10
8945;DHT22;4507;40.232;29.132;2023-06-14T03:22:29;18.50;97.20
8945;DHT22;4507;40.232;29.132;2023-06-14T03:25:00;18.50;97.10
8945;DHT22;4507;40.232;29.132;2023-06-14T03:27:35;18.50;97.10
8945;DHT22;4507;40.232;29.132;2023-06-14T03:30:06;18.50;97.20
8945;DHT22;4507;40.232;29.132;2023-06-14T03:32:55;18.50;97.30
8945;DHT22;4507;40.232;29.132;2023-06-14T03:35:27;18.50;97.20
8945;DHT22;4507;40.232;29.132;2023-06-14T03:37:56;18.60;97.20
8945;DHT22;4507;40.232;29.132;2023-06-14T03:40:25;18.60;97.10
8945;DHT22;4507;40.232;29.132;2023-06-14T03:43:00;18.60;97.10
8945;DHT22;4507;40.232;29.132;2023-06-14T03:45:30;18.60;97.10
8945;DHT22;4507;40.232;29.132;2023-06-14T03:48:01;18.60;97.00
8945;DHT22;4507;40.232;29.132;2023-06-14T03:50:31;18.70;97.00
8945;DHT22;4507;40.232;29.132;2023-06-14T03:53:00;18.70;97.00
8945;DHT22;4507;40.232;29.132;2023-06-14T03:55:31;18.70;96.90
8945;DHT22;4507;40.232;29.132;2023-06-14T03:58:04;18.70;96.80
8945;DHT22;4507;40.232;29.132;2023-06-14T04:00:35;18.70;96.80
8945;DHT22;4507;40.232;29.132;2023-06-14T04:03:07;18.70;96.80
8945;DHT22;4507;40.232;29.132;2023-06-14T04:05:37;18.70;96.80
8945;DHT22;4507;40.232;29.132;2023-06-14T04:08:09;18.70;96.80
8945;DHT22;4507;40.232;29.132;2023-06-14T04:10:42;18.70;96.80
8945;DHT22;4507;40.232;29.132;2023-06-14T04:13:10;18.70;96.80
8945;DHT22;4507;40.232;29.132;2023-06-14T04:15:42;18.80;96.80
8945;DHT22;4507;40.232;29.132;2023-06-14T04:18:15;18.80;97.10
8945;DHT22;4507;40.232;29.132;2023-06-14T04:20:45;18.80;96.80
8945;DHT22;4507;40.232;29.132;2023-06-14T04:23:15;18.80;96.70
8945;DHT22;4507;40.232;29.132;2023-06-14T04:25:45;18.90;96.70
8945;DHT22;4507;40.232;29.132;2023-06-14T04:28:16;18.90;96.70
8945;DHT22;4507;40.232;29.132;2023-06-14T04:30:46;18.90;96.80
8945;DHT22;4507;40.232;29.132;2023-06-14T04:33:19;18.90;96.90
8945;DHT22;4507;40.232;29.132;2023-06-14T04:35:50;19.00;97.00
8945;DHT22;4507;40.232;29.132;2023-06-14T04:38:22;19.00;97.10
8945;DHT22;4507;40.232;29.132;2023-06-14T04:40:53;19.10;97.20
8945;DHT22;4507;40.232;29.132;2023-06-14T04:43:24;19.10;97.10
8945;DHT22;4507;40.232;29.132;2023-06-14T04:45:57;19.10;97.00
8945;DHT22;4507;40.232;29.132;2023-06-14T04:48:28;19.10;96.70
8945;DHT22;4507;40.232;29.132;2023-06-14T04:50:58;19.20;96.60
8945;DHT22;4507;40.232;29.132;2023-06-14T04:53:27;19.20;96.40
8945;DHT22;4507;40.232;29.132;2023-06-14T04:55:57;19.20;96.20
8945;DHT22;4507;40.232;29.132;2023-06-14T04:58:26;19.20;96.10
8945;DHT22;4507;40.232;29.132;2023-06-14T05:00:56;19.30;96.00
8945;DHT22;4507;40.232;29.132;2023-06-14T05:03:28;19.30;95.90
8945;DHT22;4507;40.232;29.132;2023-06-14T05:05:58;19.30;95.80
8945;DHT22;4507;40.232;29.132;2023-06-14T05:08:28;19.40;96.10
8945;DHT22;4507;40.232;29.132;2023-06-14T05:10:57;19.40;95.80
8945;DHT22;4507;40.232;29.132;2023-06-14T05:13:26;19.40;95.80
8945;DHT22;4507;40.232;29.132;2023-06-14T05:15:56;19.40;95.90
8945;DHT22;4507;40.232;29.132;2023-06-14T05:18:25;19.40;95.90
8945;DHT22;4507;40.232;29.132;2023-06-14T05:20:56;19.40;95.70
8945;DHT22;4507;40.232;29.132;2023-06-14T05:23:25;19.50;95.70
8945;DHT22;4507;40.232;29.132;2023-06-14T05:25:54;19.50;95.70
8945;DHT22;4507;40.232;29.132;2023-06-14T05:28:23;19.50;95.70
8945;DHT22;4507;40.232;29.132;2023-06-14T05:30:52;19.60;95.70
8945;DHT22;4507;40.232;29.132;2023-06-14T05:33:20;19.60;95.70
8945;DHT22;4507;40.232;29.132;2023-06-14T05:35:50;19.60;95.80
8945;DHT22;4507;40.232;29.132;2023-06-14T05:38:20;19.70;95.80
8945;DHT22;4507;40.232;29.132;2023-06-14T05:40:50;19.70;95.90
8945;DHT22;4507;40.232;29.132;2023-06-14T05:43:18;19.80;96.10
8945;DHT22;4507;40.232;29.132;2023-06-14T05:45:47;19.80;96.20
8945;DHT22;4507;40.232;29.132;2023-06-14T05:48:16;19.90;96.00
8945;DHT22;4507;40.232;29.132;2023-06-14T05:50:46;20.00;95.90
8945;DHT22;4507;40.232;29.132;2023-06-14T05:53:14;20.00;95.90
8945;DHT22;4507;40.232;29.132;2023-06-14T05:56:04;20.10;95.90
8945;DHT22;4507;40.232;29.132;2023-06-14T05:58:33;20.20;96.00
8945;DHT22;4507;40.232;29.132;2023-06-14T06:01:21;20.30;95.90
8945;DHT22;4507;40.232;29.132;2023-06-14T06:03:49;20.30;95.90
8945;DHT22;4507;40.232;29.132;2023-06-14T06:06:19;20.40;95.80
8945;DHT22;4507;40.232;29.132;2023-06-14T06:08:48;20.50;95.80
8945;DHT22;4507;40.232;29.132;2023-06-14T06:11:18;20.60;95.80
8945;DHT22;4507;40.232;29.132;2023-06-14T06:13:47;20.70;95.60
8945;DHT22;4507;40.232;29.132;2023-06-14T06:16:17;20.80;95.40
8945;DHT22;4507;40.232;29.132;2023-06-14T06:18:46;20.90;95.10
8945;DHT22;4507;40.232;29.132;2023-06-14T06:21:15;21.00;95.10
8945;DHT22;4507;40.232;29.132;2023-06-14T06:23:44;21.10;94.80
8945;DHT22;4507;40.232;29.132;2023-06-14T06:26:13;21.20;94.60
8945;DHT22;4507;40.232;29.132;2023-06-14T06:29:01;21.30;94.30
8945;DHT22;4507;40.232;29.132;2023-06-14T06:31:31;21.50;94.20
8945;DHT22;4507;40.232;29.132;2023-06-14T06:34:00;21.60;94.00
8945;DHT22;4507;40.232;29.132;2023-06-14T06:36:29;21.70;93.20
8945;DHT22;4507;40.232;29.132;2023-06-14T06:38:57;21.90;92.90
8945;DHT22;4507;40.232;29.132;2023-06-14T06:41:27;22.00;92.60
8945;DHT22;4507;40.232;29.132;2023-06-14T06:43:55;22.20;92.20
8945;DHT22;4507;40.232;29.132;2023-06-14T06:46:30;22.40;91.40
8945;DHT22;4507;40.232;29.132;2023-06-14T06:48:59;22.50;90.70
8945;DHT22;4507;40.232;29.132;2023-06-14T06:51:28;22.60;90.10
8945;DHT22;4507;40.232;29.132;2023-06-14T06:53:58;22.80;90.00
8945;DHT22;4507;40.232;29.132;2023-06-14T06:56:27;22.90;88.30
8945;DHT22;4507;40.232;29.132;2023-06-14T06:58:56;23.00;87.30
8945;DHT22;4507;40.232;29.132;2023-06-14T07:01:25;23.10;86.50
8945;DHT22;4507;40.232;29.132;2023-06-14T07:03:57;23.20;85.20
8945;DHT22;4507;40.232;29.132;2023-06-14T07:06:27;23.30;84.30
8945;DHT22;4507;40.232;29.132;2023-06-14T07:08:55;23.40;82.70
8945;DHT22;4507;40.232;29.132;2023-06-14T07:11:28;23.50;82.00
8945;DHT22;4507;40.232;29.132;2023-06-14T07:13:57;23.60;81.90
8945;DHT22;4507;40.232;29.132;2023-06-14T07:16:26;23.70;80.60
8945;DHT22;4507;40.232;29.132;2023-06-14T07:18:57;23.80;80.40
8945;DHT22;4507;40.232;29.132;2023-06-14T07:21:26;23.90;79.20
8945;DHT22;4507;40.232;29.132;2023-06-14T07:23:55;24.00;78.60
8945;DHT22;4507;40.232;29.132;2023-06-14T07:26:24;24.10;78.10
8945;DHT22;4507;40.232;29.132;2023-06-14T07:28:54;24.10;77.50
8945;DHT22;4507;40.232;29.132;2023-06-14T07:31:22;24.20;77.50
8945;DHT22;4507;40.232;29.132;2023-06-14T07:33:54;24.30;76.80
8945;DHT22;4507;40.232;29.132;2023-06-14T07:36:25;24.40;77.00
8945;DHT22;4507;40.232;29.132;2023-06-14T07:38:54;24.50;76.70
8945;DHT22;4507;40.232;29.132;2023-06-14T07:41:24;24.50;75.90
8945;DHT22;4507;40.232;29.132;2023-06-14T07:43:53;24.60;75.60
8945;DHT22;4507;40.232;29.132;2023-06-14T07:46:22;24.70;75.80
8945;DHT22;4507;40.232;29.132;2023-06-14T07:48:51;24.70;75.20
8945;DHT22;4507;40.232;29.132;2023-06-14T07:51:21;24.80;74.60
8945;DHT22;4507;40.232;29.132;2023-06-14T07:53:52;24.90;74.00
8945;DHT22;4507;40.232;29.132;2023-06-14T07:56:21;25.00;73.90
8945;DHT22;4507;40.232;29.132;2023-06-14T07:58:50;25.10;74.20
8945;DHT22;4507;40.232;29.132;2023-06-14T08:01:19;25.20;74.70
8945;DHT22;4507;40.232;29.132;2023-06-14T08:03:49;25.30;72.90
8945;DHT22;4507;40.232;29.132;2023-06-14T08:06:18;25.30;72.10
8945;DHT22;4507;40.232;29.132;2023-06-14T08:08:47;25.40;72.10
8945;DHT22;4507;40.232;29.132;2023-06-14T08:11:17;25.50;72.60
8945;DHT22;4507;40.232;29.132;2023-06-14T08:13:46;25.60;72.10
8945;DHT22;4507;40.232;29.132;2023-06-14T08:16:15;25.60;71.90
8945;DHT22;4507;40.232;29.132;2023-06-14T08:18:45;25.60;72.10
8945;DHT22;4507;40.232;29.132;2023-06-14T08:21:14;25.70;72.60
8945;DHT22;4507;40.232;29.132;2023-06-14T08:23:46;25.70;72.30
8945;DHT22;4507;40.232;29.132;2023-06-14T08:26:25;25.80;72.30
8945;DHT22;4507;40.232;29.132;2023-06-14T08:28:56;25.80;71.50
8945;DHT22;4507;40.232;29.132;2023-06-14T08:31:25;25.90;71.50
8945;DHT22;4507;40.232;29.132;2023-06-14T08:33:56;25.80;70.90
8945;DHT22;4507;40.232;29.132;2023-06-14T08:36:25;25.90;70.80
8945;DHT22;4507;40.232;29.132;2023-06-14T08:38:57;25.90;70.50
8945;DHT22;4507;40.232;29.132;2023-06-14T08:41:32;26.00;70.40
8945;DHT22;4507;40.232;29.132;2023-06-14T08:44:02;26.00;69.60
8945;DHT22;4507;40.232;29.132;2023-06-14T08:46:32;26.10;69.50
8945;DHT22;4507;40.232;29.132;2023-06-14T08:49:02;26.20;69.10
8945;DHT22;4507;40.232;29.132;2023-06-14T08:51:37;26.20;69.50
8945;DHT22;4507;40.232;29.132;2023-06-14T08:54:13;26.30;69.80
8945;DHT22;4507;40.232;29.132;2023-06-14T08:56:46;26.40;69.70
8945;DHT22;4507;40.232;29.132;2023-06-14T08:59:15;26.50;69.20
8945;DHT22;4507;40.232;29.132;2023-06-14T09:01:45;26.60;68.50
8945;DHT22;4507;40.232;29.132;2023-06-14T09:04:35;26.70;68.60
8945;DHT22;4507;40.232;29.132;2023-06-14T09:07:06;26.80;68.10
8945;DHT22;4507;40.232;29.132;2023-06-14T09:10:07;26.90;67.70
8945;DHT22;4507;40.232;29.132;2023-06-14T09:12:39;26.90;67.60
8945;DHT22;4507;40.232;29.132;2023-06-14T09:15:09;27.00;68.40
8945;DHT22;4507;40.232;29.132;2023-06-14T09:17:41;27.10;67.60
8945;DHT22;4507;40.232;29.132;2023-06-14T09:20:26;27.20;68.00
8945;DHT22;4507;40.232;29.132;2023-06-14T09:23:00;27.30;67.90
8945;DHT22;4507;40.232;29.132;2023-06-14T09:25:29;27.50;67.20
8945;DHT22;4507;40.232;29.132;2023-06-14T09:28:08;27.60;67.60
8945;DHT22;4507;40.232;29.132;2023-06-14T09:30:38;27.70;66.60
8945;DHT22;4507;40.232;29.132;2023-06-14T09:33:17;27.80;66.30
8945;DHT22;4507;40.232;29.132;2023-06-14T09:35:46;27.90;65.50
8945;DHT22;4507;40.232;29.132;2023-06-14T09:38:19;28.00;65.40
8945;DHT22;4507;40.232;29.132;2023-06-14T09:40:50;28.00;65.00
8945;DHT22;4507;40.232;29.132;2023-06-14T09:43:23;28.10;64.90
8945;DHT22;4507;40.232;29.132;2023-06-14T09:45:54;28.10;64.00
8945;DHT22;4507;40.232;29.132;2023-06-14T09:48:24;27.90;63.90
8945;DHT22;4507;40.232;29.132;2023-06-14T09:50:55;27.90;63.80
8945;DHT22;4507;40.232;29.132;2023-06-14T09:53:29;27.90;63.80
8945;DHT22;4507;40.232;29.132;2023-06-14T09:55:59;27.90;64.70
8945;DHT22;4507;40.232;29.132;2023-06-14T09:58:30;27.80;64.10
8945;DHT22;4507;40.232;29.132;2023-06-14T10:00:59;27.70;64.70
8945;DHT22;4507;40.232;29.132;2023-06-14T10:03:29;27.60;66.20
8945;DHT22;4507;40.232;29.132;2023-06-14T10:06:20;27.50;65.90
8945;DHT22;4507;40.232;29.132;2023-06-14T10:08:52;27.50;66.50
8945;DHT22;4507;40.232;29.132;2023-06-14T10:11:27;27.50;66.30
8945;DHT22;4507;40.232;29.132;2023-06-14T10:13:58;27.60;66.30
8945;DHT22;4507;40.232;29.132;2023-06-14T10:16:31;27.60;66.40
8945;DHT22;4507;40.232;29.132;2023-06-14T10:19:06;27.70;66.00
8945;DHT22;4507;40.232;29.132;2023-06-14T10:21:46;27.80;65.90
8945;DHT22;4507;40.232;29.132;2023-06-14T10:24:18;27.80;65.20
8945;DHT22;4507;40.232;29.132;2023-06-14T10:26:53;27.90;65.70
8945;DHT22;4507;40.232;29.132;2023-06-14T10:29:29;27.90;65.50
8945;DHT22;4507;40.232;29.132;2023-06-14T10:32:00;28.00;64.80
8945;DHT22;4507;40.232;29.132;2023-06-14T10:34:31;27.90;64.50
8945;DHT22;4507;40.232;29.132;2023-06-14T10:37:03;27.80;64.10
8945;DHT22;4507;40.232;29.132;2023-06-14T10:39:38;27.70;64.80
8945;DHT22;4507;40.232;29.132;2023-06-14T10:42:08;27.60;65.40
8945;DHT22;4507;40.232;29.132;2023-06-14T10:44:43;27.60;65.00
8945;DHT22;4507;40.232;29.132;2023-06-14T10:47:24;27.50;65.50
8945;DHT22;4507;40.232;29.132;2023-06-14T10:49:54;27.50;65.50
8945;DHT22;4507;40.232;29.132;2023-06-14T10:52:26;27.50;65.70
8945;DHT22;4507;40.232;29.132;2023-06-14T10:55:14;27.50;65.60
8945;DHT22;4507;40.232;29.132;2023-06-14T10:57:47;27.60;65.80
8945;DHT22;4507;40.232;29.132;2023-06-14T11:00:23;27.70;65.90
8945;DHT22;4507;40.232;29.132;2023-06-14T11:03:28;27.80;65.70
8945;DHT22;4507;40.232;29.132;2023-06-14T11:06:00;27.90;65.20
8945;DHT22;4507;40.232;29.132;2023-06-14T11:11:43;28.20;63.80
8945;DHT22;4507;40.232;29.132;2023-06-14T11:14:17;28.30;62.60
8945;DHT22;4507;40.232;29.132;2023-06-14T11:16:50;28.40;62.60
8945;DHT22;4507;40.232;29.132;2023-06-14T11:19:19;28.40;63.40
8945;DHT22;4507;40.232;29.132;2023-06-14T11:21:48;28.50;63.40
8945;DHT22;4507;40.232;29.132;2023-06-14T11:24:19;28.60;63.30
8945;DHT22;4507;40.232;29.132;2023-06-14T11:26:49;28.70;63.70
8945;DHT22;4507;40.232;29.132;2023-06-14T11:29:20;28.80;63.60
8945;DHT22;4507;40.232;29.132;2023-06-14T11:31:53;28.80;63.50
8945;DHT22;4507;40.232;29.132;2023-06-14T11:34:24;28.90;62.60
8945;DHT22;4507;40.232;29.132;2023-06-14T11:36:54;28.90;62.70
8945;DHT22;4507;40.232;29.132;2023-06-14T11:39:25;29.00;62.90
8945;DHT22;4507;40.232;29.132;2023-06-14T11:41:57;29.00;63.30
8945;DHT22;4507;40.232;29.132;2023-06-14T11:44:31;29.20;63.90
8945;DHT22;4507;40.232;29.132;2023-06-14T11:47:06;29.20;63.40
8945;DHT22;4507;40.232;29.132;2023-06-14T11:49:37;29.40;63.50
8945;DHT22;4507;40.232;29.132;2023-06-14T11:52:07;29.40;63.00
8945;DHT22;4507;40.232;29.132;2023-06-14T11:54:37;29.40;63.60
8945;DHT22;4507;40.232;29.132;2023-06-14T11:57:12;29.40;64.10
8945;DHT22;4507;40.232;29.132;2023-06-14T11:59:44;29.40;63.40
8945;DHT22;4507;40.232;29.132;2023-06-14T12:02:16;29.40;62.80
8945;DHT22;4507;40.232;29.132;2023-06-14T12:04:47;29.40;63.00
8945;DHT22;4507;40.232;29.132;2023-06-14T12:07:18;29.30;63.10
8945;DHT22;4507;40.232;29.132;2023-06-14T12:10:06;29.20;63.60
8945;DHT22;4507;40.232;29.132;2023-06-14T12:12:37;29.30;63.90
8945;DHT22;4507;40.232;29.132;2023-06-14T12:15:09;29.30;64.80
8945;DHT22;4507;40.232;29.132;2023-06-14T12:17:47;29.50;64.20
8945;DHT22;4507;40.232;29.132;2023-06-14T12:20:16;29.60;63.90
8945;DHT22;4507;40.232;29.132;2023-06-14T12:23:11;29.80;62.80
8945;DHT22;4507;40.232;29.132;2023-06-14T12:25:40;29.90;60.80
8945;DHT22;4507;40.232;29.132;2023-06-14T12:28:12;29.90;60.80
8945;DHT22;4507;40.232;29.132;2023-06-14T12:30:41;29.80;60.20
8945;DHT22;4507;40.232;29.132;2023-06-14T12:33:13;29.70;60.30
8945;DHT22;4507;40.232;29.132;2023-06-14T12:35:43;29.70;61.00
8945;DHT22;4507;40.232;29.132;2023-06-14T12:38:13;29.60;61.00
8945;DHT22;4507;40.232;29.132;2023-06-14T12:40:42;29.60;61.20
8945;DHT22;4507;40.232;29.132;2023-06-14T12:43:12;29.50;60.90
8945;DHT22;4507;40.232;29.132;2023-06-14T12:45:45;29.60;61.30
8945;DHT22;4507;40.232;29.132;2023-06-14T12:48:15;29.60;60.70
8945;DHT22;4507;40.232;29.132;2023-06-14T12:50:45;29.50;60.80
8945;DHT22;4507;40.232;29.132;2023-06-14T12:53:15;29.60;61.30
8945;DHT22;4507;40.232;29.132;2023-06-14T12:55:44;29.60;60.60
8945;DHT22;4507;40.232;29.132;2023-06-14T12:58:13;29.70;60.50
8945;DHT22;4507;40.232;29.132;2023-06-14T13:00:44;29.70;59.20
8945;DHT22;4507;40.232;29.132;2023-06-14T13:03:14;29.70;59.20
8945;DHT22;4507;40.232;29.132;2023-06-14T13:05:44;29.70;58.40
8945;DHT22;4507;40.232;29.132;2023-06-14T13:08:13;29.70;57.60
8945;DHT22;4507;40.232;29.132;2023-06-14T13:10:42;29.60;57.10
8945;DHT22;4507;40.232;29.132;2023-06-14T13:13:11;29.60;57.80
8945;DHT22;4507;40.232;29.132;2023-06-14T13:15:41;29.50;57.70
8945;DHT22;4507;40.232;29.132;2023-06-14T13:18:11;29.50;58.10
8945;DHT22;4507;40.232;29.132;2023-06-14T13:20:42;29.40;58.10
8945;DHT22;4507;40.232;29.132;2023-06-14T13:23:11;29.30;57.60
8945;DHT22;4507;40.232;29.132;2023-06-14T13:25:40;29.20;57.80
8945;DHT22;4507;40.232;29.132;2023-06-14T13:28:09;29.10;59.00
8945;DHT22;4507;40.232;29.132;2023-06-14T13:30:38;29.10;59.60
8945;DHT22;4507;40.232;29.132;2023-06-14T13:33:07;29.00;59.60
8945;DHT22;4507;40.232;29.132;2023-06-14T13:35:36;28.80;59.50
8945;DHT22;4507;40.232;29.132;2023-06-14T13:38:06;28.70;59.80
8945;DHT22;4507;40.232;29.132;2023-06-14T13:40:36;28.50;60.20
8945;DHT22;4507;40.232;29.132;2023-06-14T13:43:05;28.40;60.70
8945;DHT22;4507;40.232;29.132;2023-06-14T13:45:34;28.20;61.80
8945;DHT22;4507;40.232;29.132;2023-06-14T13:48:04;28.10;62.80
8945;DHT22;4507;40.232;29.132;2023-06-14T13:50:33;28.10;63.50
8945;DHT22;4507;40.232;29.132;2023-06-14T13:53:02;28.00;63.80
8945;DHT22;4507;40.232;29.132;2023-06-14T13:55:33;28.00;63.80
8945;DHT22;4507;40.232;29.132;2023-06-14T13:58:05;27.90;64.40
8945;DHT22;4507;40.232;29.132;2023-06-14T14:00:34;28.00;64.70
8945;DHT22;4507;40.232;29.132;2023-06-14T14:03:04;28.00;64.40
8945;DHT22;4507;40.232;29.132;2023-06-14T14:05:33;27.90;64.20
8945;DHT22;4507;40.232;29.132;2023-06-14T14:08:03;27.80;64.30
8945;DHT22;4507;40.232;29.132;2023-06-14T14:10:34;27.70;64.30
8945;DHT22;4507;40.232;29.132;2023-06-14T14:13:03;27.50;64.70
8945;DHT22;4507;40.232;29.132;2023-06-14T14:15:31;27.40;65.20
8945;DHT22;4507;40.232;29.132;2023-06-14T14:18:02;27.30;65.60
8945;DHT22;4507;40.232;29.132;2023-06-14T14:20:31;27.20;66.20
8945;DHT22;4507;40.232;29.132;2023-06-14T14:23:00;27.10;66.80
8945;DHT22;4507;40.232;29.132;2023-06-14T14:25:29;27.00;67.00
8945;DHT22;4507;40.232;29.132;2023-06-14T14:27:59;27.00;67.50
8945;DHT22;4507;40.232;29.132;2023-06-14T14:30:28;26.90;68.00
8945;DHT22;4507;40.232;29.132;2023-06-14T14:32:57;26.90;68.50
8945;DHT22;4507;40.232;29.132;2023-06-14T14:35:27;26.90;68.30
8945;DHT22;4507;40.232;29.132;2023-06-14T14:37:58;26.90;68.50
8945;DHT22;4507;40.232;29.132;2023-06-14T14:40:27;26.90;69.10
8945;DHT22;4507;40.232;29.132;2023-06-14T14:42:55;26.90;69.20
8945;DHT22;4507;40.232;29.132;2023-06-14T14:45:26;26.90;68.80
8945;DHT22;4507;40.232;29.132;2023-06-14T14:47:55;27.00;68.90
8945;DHT22;4507;40.232;29.132;2023-06-14T14:50:25;27.00;68.90
8945;DHT22;4507;40.232;29.132;2023-06-14T14:52:54;27.00;68.10
8945;DHT22;4507;40.232;29.132;2023-06-14T14:55:23;27.10;67.40
8945;DHT22;4507;40.232;29.132;2023-06-14T14:57:53;27.10;67.10
8945;DHT22;4507;40.232;29.132;2023-06-14T15:00:22;27.10;67.00
8945;DHT22;4507;40.232;29.132;2023-06-14T15:02:52;27.10;67.00
8945;DHT22;4507;40.232;29.132;2023-06-14T15:05:21;27.10;66.80
8945;DHT22;4507;40.232;29.132;2023-06-14T15:07:50;27.10;66.50
8945;DHT22;4507;40.232;29.132;2023-06-14T15:10:19;27.10;66.30
8945;DHT22;4507;40.232;29.132;2023-06-14T15:12:48;27.00;66.70
8945;DHT22;4507;40.232;29.132;2023-06-14T15:15:17;27.00;67.20
8945;DHT22;4507;40.232;29.132;2023-06-14T15:17:46;26.90;67.60
8945;DHT22;4507;40.232;29.132;2023-06-14T15:20:17;26.90;68.00
8945;DHT22;4507;40.232;29.132;2023-06-14T15:22:46;26.90;67.40
8945;DHT22;4507;40.232;29.132;2023-06-14T15:25:17;26.80;66.90
8945;DHT22;4507;40.232;29.132;2023-06-14T15:27:47;26.80;67.10
8945;DHT22;4507;40.232;29.132;2023-06-14T15:30:16;26.80;67.30
8945;DHT22;4507;40.232;29.132;2023-06-14T15:32:45;26.80;67.30
8945;DHT22;4507;40.232;29.132;2023-06-14T15:35:17;26.80;67.40
8945;DHT22;4507;40.232;29.132;2023-06-14T15:37:48;26.80;67.30
8945;DHT22;4507;40.232;29.132;2023-06-14T15:40:17;26.80;67.20
8945;DHT22;4507;40.232;29.132;2023-06-14T15:42:46;26.80;67.40
8945;DHT22;4507;40.232;29.132;2023-06-14T15:45:15;26.80;68.00
8945;DHT22;4507;40.232;29.132;2023-06-14T15:47:44;26.80;67.90
8945;DHT22;4507;40.232;29.132;2023-06-14T15:50:13;26.90;67.90
8945;DHT22;4507;40.232;29.132;2023-06-14T15:52:44;26.90;67.80
8945;DHT22;4507;40.232;29.132;2023-06-14T15:55:16;26.90;67.60
8945;DHT22;4507;40.232;29.132;2023-06-14T15:57:45;26.90;67.80
8945;DHT22;4507;40.232;29.132;2023-06-14T16:00:15;26.90;68.20
8945;DHT22;4507;40.232;29.132;2023-06-14T16:02:44;27.00;68.20
8945;DHT22;4507;40.232;29.132;2023-06-14T16:05:14;27.00;68.10
8945;DHT22;4507;40.232;29.132;2023-06-14T16:07:44;27.00;68.30
8945;DHT22;4507;40.232;29.132;2023-06-14T16:10:13;27.00;68.60
8945;DHT22;4507;40.232;29.132;2023-06-14T16:12:43;27.00;68.40